Time;durP1;ratioP1;P1;durP2;ratioP2;P2;SDS_P1;SDS_P2;PMS_P1;PMS_P2;Temp;Humidity;BMP_temperature;BMP_pressure;BME280_temperature;BME280_humidity;BME280_pressure;Samples;Min_cycle;Max_cycle;Signal;HPM_P1;HPM_P2
2022/02/11 01:04:13;;;;;;;2.03;1.83;;;7.50;99.90;;;;;;4913332;29;20527;-52
2022/02/11 01:07:36;;;;;;;2.53;2.15;;;7.50;99.90;;;;;;4890138;29;20811;-52
2022/02/11 01:10:05;;;;;;;3.15;2.85;;;7.50;99.90;;;;;;4929117;28;20222;-52
2022/02/11 01:12:41;;;;;;;2.33;2.13;;;7.50;99.90;;;;;;5007813;28;20229;-51
2022/02/11 01:15:46;;;;;;;2.78;2.20;;;7.50;99.90;;;;;;5069035;28;20193;-51
2022/02/11 01:18:24;;;;;;;2.45;1.90;;;7.50;99.90;;;;;;5058849;28;20288;-52
2022/02/11 01:21:19;;;;;;;2.40;2.20;;;7.50;99.90;;;;;;5068263;28;20239;-52
2022/02/11 01:24:07;;;;;;;2.45;2.20;;;7.50;99.90;;;;;;5069086;28;20235;-52
2022/02/11 01:27:12;;;;;;;5.50;2.88;;;7.50;99.90;;;;;;5068885;28;20230;-51
2022/02/11 01:30:12;;;;;;;2.70;2.50;;;7.50;99.90;;;;;;5038456;28;20221;-52
2022/02/11 01:33:15;;;;;;;2.80;2.38;;;7.50;99.90;;;;;;5051835;28;20599;-51
2022/02/11 01:36:06;;;;;;;2.45;2.25;;;7.50;99.90;;;;;;5032813;28;20217;-52
2022/02/11 01:47:30;;;;;;;3.38;2.83;;;7.50;99.90;;;;;;5127122;27;21126;-52
2022/02/11 01:53:17;;;;;;;2.65;2.45;;;7.50;99.90;;;;;;5080619;28;20225;-53
2022/02/11 01:56:04;;;;;;;2.50;1.92;;;7.50;99.90;;;;;;5086971;28;20638;-52
2022/02/11 01:59:03;;;;;;;2.67;2.33;;;7.50;99.90;;;;;;5085659;28;20708;-52
2022/02/11 02:19:08;;;;;;;2.67;2.47;;;7.50;99.90;;;;;;5040129;28;20230;-51
2022/02/11 02:24:30;;;;;;;3.75;3.33;;;7.40;99.90;;;;;;5084634;28;20759;-49
2022/02/11 02:30:56;;;;;;;3.15;2.85;;;7.40;99.90;;;;;;5058850;28;20214;-52
2022/02/11 02:58:24;;;;;;;4.20;3.47;;;7.40;99.90;;;;;;5066996;28;20611;-52
2022/02/11 03:01:34;;;;;;;3.53;2.97;;;7.40;99.90;;;;;;5071971;28;20230;-52
2022/02/11 03:15:53;;;;;;;5.80;3.70;;;7.40;99.90;;;;;;5070764;28;20719;-51
2022/02/11 03:48:30;;;;;;;5.25;3.38;;;7.30;99.90;;;;;;4970766;28;20227;-51
2022/02/11 03:50:03;;;;;;;3.80;3.47;;;7.30;99.90;;;;;;5063162;28;20217;-51
2022/02/11 03:53:06;;;;;;;5.15;3.47;;;7.30;99.90;;;;;;5071074;28;20287;-52
2022/02/11 03:56:04;;;;;;;4.57;3.47;;;7.30;99.90;;;;;;5051057;28;20243;-51
2022/02/11 04:21:11;;;;;;;6.13;4.40;;;7.20;99.90;;;;;;5051211;28;20296;-53
2022/02/11 05:00:11;;;;;;;4.65;3.63;;;7.20;99.90;;;;;;5083424;28;20239;-52
2022/02/11 05:02:39;;;;;;;5.60;3.90;;;7.20;99.90;;;;;;5081199;28;20218;-52
2022/02/11 05:05:09;;;;;;;4.60;3.13;;;7.20;99.90;;;;;;5054806;28;20568;-51
2022/02/11 05:07:37;;;;;;;5.70;3.35;;;7.20;99.90;;;;;;5071833;28;20652;-52
2022/02/11 05:10:08;;;;;;;7.05;3.75;;;7.20;99.90;;;;;;5090012;28;20207;-52
2022/02/11 05:12:36;;;;;;;6.43;3.85;;;7.20;99.90;;;;;;5088852;28;20589;-51
2022/02/11 05:15:09;;;;;;;4.55;4.10;;;7.20;99.90;;;;;;5049825;28;20208;-51
2022/02/11 05:17:37;;;;;;;5.72;4.00;;;7.20;99.90;;;;;;5070717;28;20223;-52
2022/02/11 05:20:08;;;;;;;4.22;3.65;;;7.20;99.90;;;;;;5070895;28;20580;-53
2022/02/11 05:22:36;;;;;;;5.63;3.42;;;7.20;99.90;;;;;;5079888;28;20216;-51
2022/02/11 05:25:08;;;;;;;8.55;3.60;;;7.20;99.90;;;;;;5089777;28;20193;-51
2022/02/11 05:27:36;;;;;;;5.93;3.55;;;7.20;99.90;;;;;;5082128;28;20208;-52
2022/02/11 05:30:08;;;;;;;5.28;3.50;;;7.20;99.90;;;;;;5089986;28;20744;-52
2022/02/11 05:32:36;;;;;;;6.05;3.70;;;7.20;99.90;;;;;;5089403;28;20218;-52
2022/02/11 05:35:05;;;;;;;4.38;2.90;;;7.20;99.90;;;;;;5055377;28;20194;-52
2022/02/11 05:37:35;;;;;;;3.83;3.20;;;7.20;99.90;;;;;;5069234;28;20217;-51
2022/02/11 05:40:03;;;;;;;3.72;3.42;;;7.20;99.90;;;;;;5089377;28;20314;-52
2022/02/11 05:42:31;;;;;;;5.28;3.80;;;7.20;99.90;;;;;;5073418;28;20213;-52
2022/02/11 05:44:59;;;;;;;5.18;3.47;;;7.20;99.90;;;;;;5064813;28;20195;-52
2022/02/11 05:47:29;;;;;;;6.18;3.90;;;7.20;99.90;;;;;;5088914;28;20297;-51
2022/02/11 05:49:57;;;;;;;4.40;4.00;;;7.20;99.90;;;;;;5066222;28;20219;-52
2022/02/11 05:52:45;;;;;;;7.25;3.65;;;7.20;99.90;;;;;;5088330;28;20261;-51
2022/02/11 05:55:13;;;;;;;8.40;4.10;;;7.10;99.90;;;;;;5087635;28;20205;-52
2022/02/11 05:57:41;;;;;;;6.20;3.97;;;7.20;99.90;;;;;;5078345;28;20212;-52
2022/02/11 06:00:11;;;;;;;7.60;3.78;;;7.10;99.90;;;;;;5054173;28;20628;-52
2022/02/11 06:02:40;;;;;;;5.35;3.38;;;7.10;99.90;;;;;;5087999;28;20306;-52
2022/02/11 06:05:09;;;;;;;4.00;3.58;;;7.10;99.90;;;;;;5078567;28;20194;-52
2022/02/11 06:07:37;;;;;;;3.72;2.90;;;7.10;99.90;;;;;;5084285;28;20261;-51
2022/02/11 06:10:06;;;;;;;5.38;3.90;;;7.10;99.90;;;;;;5087165;28;20751;-51
2022/02/11 06:12:35;;;;;;;5.82;4.07;;;7.10;99.90;;;;;;5085357;28;20299;-53
2022/02/11 06:15:03;;;;;;;4.82;2.92;;;7.10;99.90;;;;;;5059246;28;20256;-52
2022/02/11 06:17:31;;;;;;;8.65;3.45;;;7.10;99.90;;;;;;5088654;28;20211;-52
2022/02/11 06:20:02;;;;;;;3.80;3.40;;;7.10;99.90;;;;;;5071662;28;20408;-52
2022/02/11 06:22:31;;;;;;;6.75;3.75;;;7.10;99.90;;;;;;5070528;28;20622;-52
2022/02/11 06:24:59;;;;;;;3.70;3.30;;;7.10;99.90;;;;;;5087300;28;20192;-52
2022/02/11 06:27:27;;;;;;;4.53;3.47;;;7.10;99.90;;;;;;5056059;28;20217;-52
2022/02/11 06:29:56;;;;;;;4.45;3.58;;;7.10;99.90;;;;;;5070595;28;20222;-51
2022/02/11 06:32:24;;;;;;;3.88;3.20;;;7.10;99.90;;;;;;5074438;28;20715;-51
2022/02/11 06:34:55;;;;;;;7.40;3.85;;;7.10;99.90;;;;;;5058716;28;20196;-52
2022/02/11 06:37:25;;;;;;;8.55;3.42;;;7.10;99.90;;;;;;5071279;28;20219;-51
2022/02/11 06:39:53;;;;;;;4.25;3.15;;;7.10;99.90;;;;;;5072662;28;20216;-52
2022/02/11 06:42:22;;;;;;;4.57;3.10;;;7.10;99.90;;;;;;5067193;28;20648;-52
2022/02/11 06:44:51;;;;;;;4.20;3.45;;;7.10;99.90;;;;;;5052515;28;20192;-51
2022/02/11 06:47:20;;;;;;;4.57;3.15;;;7.10;99.90;;;;;;5044772;28;20239;-52
2022/02/11 06:49:50;;;;;;;4.13;3.40;;;7.10;99.90;;;;;;5047908;28;20207;-52
2022/02/11 06:52:19;;;;;;;5.90;4.45;;;7.10;99.90;;;;;;5069054;28;20629;-53
2022/02/11 06:54:50;;;;;;;5.72;2.85;;;7.10;99.90;;;;;;5071857;28;20256;-51
2022/02/11 06:57:19;;;;;;;5.00;3.40;;;7.10;99.90;;;;;;5068864;28;20629;-52
2022/02/11 06:59:48;;;;;;;4.75;2.90;;;7.10;99.90;;;;;;5048414;28;20224;-52
2022/02/11 07:02:19;;;;;;;4.65;3.20;;;7.10;99.90;;;;;;5069102;28;20226;-52
2022/02/11 07:04:49;;;;;;;4.80;2.88;;;7.10;99.90;;;;;;5065824;28;20242;-51
2022/02/11 07:07:18;;;;;;;5.80;2.80;;;7.10;99.90;;;;;;5071341;28;20250;-52
2022/02/11 07:09:49;;;;;;;5.15;2.60;;;7.10;99.90;;;;;;5068449;28;20582;-52
2022/02/11 07:12:26;;;;;;;5.72;3.05;;;7.10;99.90;;;;;;5059227;28;20573;-52
2022/02/11 07:14:55;;;;;;;5.53;3.38;;;7.10;99.90;;;;;;5071469;28;20215;-52
2022/02/11 07:17:27;;;;;;;5.50;3.30;;;7.10;99.90;;;;;;5059768;28;20231;-52
2022/02/11 07:20:11;;;;;;;5.03;3.03;;;7.10;99.90;;;;;;5052293;28;20222;-52
2022/02/11 07:22:42;;;;;;;4.15;2.90;;;7.00;99.90;;;;;;5039094;28;20217;-52
2022/02/11 07:25:15;;;;;;;4.72;2.80;;;7.10;99.90;;;;;;5070420;28;20241;-52
2022/02/11 07:28:06;;;;;;;3.15;2.42;;;7.00;99.90;;;;;;5046818;28;20221;-52
2022/02/11 07:30:35;;;;;;;6.65;2.67;;;7.00;99.90;;;;;;5067373;28;20226;-51
2022/02/11 07:33:04;;;;;;;4.68;2.97;;;7.00;99.90;;;;;;5070980;28;20220;-51
2022/02/11 07:35:33;;;;;;;6.57;2.95;;;7.00;99.90;;;;;;5067798;28;20190;-52
2022/02/11 07:38:06;;;;;;;5.40;3.55;;;7.00;99.90;;;;;;5068561;28;20211;-52
2022/02/11 07:40:38;;;;;;;6.75;4.30;;;7.00;99.90;;;;;;5071860;28;20296;-52
2022/02/11 07:43:09;;;;;;;7.03;2.78;;;7.00;99.90;;;;;;5029227;28;20222;-53
2022/02/11 07:46:22;;;;;;;4.20;3.03;;;7.00;99.90;;;;;;5064043;28;20196;-52
2022/02/11 07:48:53;;;;;;;5.95;3.42;;;7.00;99.90;;;;;;5054433;28;20776;-52
2022/02/11 07:51:23;;;;;;;9.25;3.80;;;7.00;99.90;;;;;;5066941;28;20227;-53
2022/02/11 07:53:53;;;;;;;4.50;2.40;;;7.00;99.90;;;;;;5070752;28;20216;-51
2022/02/11 07:56:22;;;;;;;4.53;3.10;;;7.00;99.90;;;;;;5064249;28;20699;-52
2022/02/11 07:58:51;;;;;;;6.90;4.20;;;7.00;99.90;;;;;;5063764;28;20708;-52
2022/02/11 08:01:20;;;;;;;9.20;3.40;;;7.00;99.90;;;;;;5070601;28;20229;-53
2022/02/11 08:03:52;;;;;;;3.60;2.88;;;7.00;99.90;;;;;;5066971;28;20563;-53
2022/02/11 08:06:20;;;;;;;6.47;3.55;;;7.00;99.90;;;;;;5069966;28;20259;-53
2022/02/11 08:08:49;;;;;;;6.78;3.70;;;7.00;99.90;;;;;;5070514;28;20216;-53
2022/02/11 08:11:17;;;;;;;2.85;2.50;;;7.00;99.90;;;;;;5070697;28;20700;-52
2022/02/11 08:13:45;;;;;;;4.43;2.42;;;7.00;99.90;;;;;;5048149;28;20201;-53
2022/02/11 08:16:15;;;;;;;8.05;3.55;;;7.00;99.90;;;;;;5069375;28;20657;-52
2022/02/11 08:18:43;;;;;;;4.78;3.03;;;7.00;99.90;;;;;;5063858;28;20251;-53
2022/02/11 08:21:15;;;;;;;6.60;2.63;;;7.00;99.90;;;;;;5064913;28;20746;-53
2022/02/11 08:23:44;;;;;;;5.55;2.53;;;7.00;99.90;;;;;;5069720;28;20283;-53
2022/02/11 08:26:14;;;;;;;5.00;2.85;;;7.00;99.90;;;;;;5060603;28;20658;-51
2022/02/11 08:28:42;;;;;;;7.22;3.25;;;7.00;99.90;;;;;;5053357;28;20266;-52
2022/02/11 08:31:12;;;;;;;3.20;2.90;;;7.00;99.90;;;;;;5055053;28;20248;-52
2022/02/11 08:33:42;;;;;;;4.70;2.90;;;7.00;99.90;;;;;;5049452;28;20218;-53
2022/02/11 08:36:11;;;;;;;5.25;2.85;;;7.00;99.90;;;;;;5064381;28;20566;-53
2022/02/11 08:38:40;;;;;;;8.15;3.45;;;7.00;99.90;;;;;;5059846;28;20194;-51
2022/02/11 08:41:09;;;;;;;9.68;3.50;;;7.00;99.90;;;;;;5056101;28;20208;-52
2022/02/11 08:43:38;;;;;;;5.72;3.00;;;7.00;99.90;;;;;;5049116;28;20247;-52
2022/02/11 08:46:08;;;;;;;7.50;3.63;;;7.00;99.90;;;;;;5049427;28;20199;-52
2022/02/11 08:48:38;;;;;;;5.07;3.13;;;7.00;99.90;;;;;;5048223;28;20228;-52
2022/02/11 08:51:08;;;;;;;4.10;3.25;;;7.00;99.90;;;;;;5049405;28;20220;-52
2022/02/11 08:53:38;;;;;;;3.75;2.38;;;7.00;99.90;;;;;;5050783;28;20278;-51
2022/02/11 08:56:08;;;;;;;3.55;2.55;;;7.00;99.90;;;;;;5049625;28;20209;-51
2022/02/11 08:58:38;;;;;;;4.00;3.00;;;7.00;99.90;;;;;;5030603;28;20194;-51
2022/02/11 09:01:06;;;;;;;4.18;3.00;;;7.00;99.90;;;;;;5031949;28;20215;-50
2022/02/11 09:03:36;;;;;;;4.82;2.92;;;7.00;99.90;;;;;;5030284;28;20208;-52
2022/02/11 09:06:05;;;;;;;7.30;2.60;;;7.00;99.90;;;;;;5028996;28;20601;-52
2022/02/11 09:08:35;;;;;;;5.35;2.00;;;7.00;99.90;;;;;;5030372;28;20218;-52
2022/02/11 09:11:07;;;;;;;3.25;2.75;;;7.00;99.90;;;;;;5029864;28;20711;-51
2022/02/11 09:13:37;;;;;;;4.30;2.40;;;7.00;99.90;;;;;;5044774;28;20280;-52
2022/02/11 09:16:06;;;;;;;5.85;2.42;;;7.00;99.90;;;;;;5048900;28;20209;-51
2022/02/11 09:18:36;;;;;;;5.40;2.30;;;7.00;99.90;;;;;;5044285;28;20237;-51
2022/02/11 09:21:06;;;;;;;5.80;1.88;;;7.00;99.90;;;;;;5030262;28;20216;-53
2022/02/11 09:23:36;;;;;;;9.02;2.78;;;7.00;99.90;;;;;;5041502;28;20752;-52
2022/02/11 09:26:06;;;;;;;2.55;2.35;;;7.00;99.90;;;;;;5046060;28;20198;-52
2022/02/11 09:28:35;;;;;;;6.50;3.15;;;7.00;99.90;;;;;;5048294;28;20247;-51
2022/02/11 09:31:03;;;;;;;4.22;2.20;;;7.00;99.90;;;;;;5048265;28;20235;-51
2022/02/11 09:33:33;;;;;;;7.72;2.72;;;7.00;99.90;;;;;;5046853;28;20184;-52
2022/02/11 09:36:04;;;;;;;9.52;3.05;;;7.00;99.90;;;;;;5048623;28;20279;-51
2022/02/11 09:38:36;;;;;;;6.75;2.70;;;7.00;99.90;;;;;;5048900;28;20610;-52
2022/02/11 09:41:05;;;;;;;6.18;3.03;;;7.00;99.90;;;;;;5048822;28;20574;-52
2022/02/11 09:43:39;;;;;;;3.60;2.67;;;7.00;99.90;;;;;;5046725;28;20702;-51
2022/02/11 09:46:09;;;;;;;3.58;2.50;;;7.00;99.90;;;;;;5048718;28;20205;-51
2022/02/11 09:48:36;;;;;;;6.85;2.65;;;7.00;99.90;;;;;;5043602;28;20288;-52
2022/02/11 09:51:04;;;;;;;4.90;2.92;;;7.00;99.90;;;;;;5045160;28;20210;-51
2022/02/11 09:53:32;;;;;;;6.82;2.30;;;7.00;99.90;;;;;;5048670;28;20249;-52
2022/02/11 09:56:04;;;;;;;4.70;2.60;;;7.00;99.90;;;;;;5046458;28;20247;-52
2022/02/11 09:58:54;;;;;;;3.10;2.80;;;7.00;99.90;;;;;;5043137;28;20193;-52
2022/02/11 10:01:23;;;;;;;6.20;2.38;;;7.00;99.90;;;;;;5048442;28;20247;-53
2022/02/11 10:04:12;;;;;;;5.20;2.47;;;7.00;99.90;;;;;;5036808;28;20219;-52
2022/02/11 10:06:44;;;;;;;4.70;2.70;;;7.00;99.90;;;;;;5049237;28;20262;-52
2022/02/11 10:09:15;;;;;;;3.38;2.30;;;7.00;99.90;;;;;;5053286;28;20206;-53
2022/02/11 10:11:46;;;;;;;4.40;2.67;;;7.00;99.90;;;;;;5050951;28;20208;-52
2022/02/11 10:14:23;;;;;;;4.07;2.38;;;7.00;99.90;;;;;;5051663;28;20223;-52
2022/02/11 10:16:57;;;;;;;4.95;2.75;;;7.00;99.90;;;;;;5051542;28;20216;-51
2022/02/11 10:19:47;;;;;;;4.15;2.70;;;7.00;99.90;;;;;;5042087;28;20220;-51
2022/02/11 10:22:18;;;;;;;4.90;2.40;;;7.00;99.90;;;;;;5050708;28;20220;-51
2022/02/11 10:24:49;;;;;;;4.50;2.55;;;7.00;99.90;;;;;;5052210;28;20250;-53
2022/02/11 10:27:23;;;;;;;3.90;2.15;;;7.00;99.90;;;;;;5046717;28;20308;-52
2022/02/11 10:29:53;;;;;;;5.43;2.45;;;7.00;99.90;;;;;;5034552;28;20249;-51
2022/02/11 10:32:47;;;;;;;3.67;2.25;;;7.00;99.90;;;;;;5052488;28;20610;-52
2022/02/11 10:35:19;;;;;;;7.75;2.72;;;7.00;99.90;;;;;;5043415;28;20284;-51
2022/02/11 10:38:09;;;;;;;4.68;2.60;;;6.90;99.90;;;;;;5050285;28;20220;-52
2022/02/11 10:40:45;;;;;;;6.50;2.67;;;7.00;99.90;;;;;;5052561;28;20215;-52
2022/02/11 10:43:26;;;;;;;9.38;3.08;;;7.00;99.90;;;;;;5045232;28;20226;-52
2022/02/11 10:45:59;;;;;;;8.13;2.55;;;6.90;99.90;;;;;;5038096;28;20264;-52
2022/02/11 10:48:27;;;;;;;5.55;3.38;;;6.90;99.90;;;;;;5046544;28;20260;-51
2022/02/11 10:50:57;;;;;;;4.63;2.30;;;6.90;99.90;;;;;;5051426;28;20722;-52
2022/02/11 10:53:29;;;;;;;5.60;2.63;;;6.90;99.90;;;;;;5052303;28;20216;-52
2022/02/11 10:55:59;;;;;;;3.75;2.30;;;6.90;99.90;;;;;;5051595;28;20201;-52
2022/02/11 10:58:30;;;;;;;6.55;2.63;;;6.90;99.90;;;;;;5032354;28;20274;-53
2022/02/11 11:01:01;;;;;;;6.75;2.40;;;6.90;99.90;;;;;;5032104;28;20218;-50
2022/02/11 11:03:33;;;;;;;4.25;2.20;;;6.90;99.90;;;;;;5047158;28;20314;-51
2022/02/11 11:06:05;;;;;;;4.97;3.13;;;6.90;99.90;;;;;;5034554;28;20192;-51
2022/02/11 11:08:36;;;;;;;6.38;2.70;;;6.90;99.90;;;;;;5051887;28;20199;-51
2022/02/11 11:11:09;;;;;;;2.75;1.90;;;6.90;99.90;;;;;;5049361;28;20216;-52
2022/02/11 11:13:42;;;;;;;5.63;2.75;;;6.90;99.90;;;;;;5051769;28;20267;-50
2022/02/11 11:16:15;;;;;;;5.00;2.55;;;6.90;99.90;;;;;;5051024;28;20206;-51
2022/02/11 11:18:45;;;;;;;2.97;1.80;;;6.90;99.90;;;;;;5049398;28;20225;-52
2022/02/11 11:21:14;;;;;;;2.97;2.22;;;7.00;99.90;;;;;;5049266;28;20212;-51
2022/02/11 11:24:17;;;;;;;4.50;2.40;;;7.00;99.90;;;;;;5051000;28;20562;-51
2022/02/11 11:26:50;;;;;;;5.65;1.98;;;7.00;99.90;;;;;;5047460;28;20655;-52
2022/02/11 11:29:20;;;;;;;3.38;1.77;;;7.00;99.90;;;;;;5042608;28;20216;-51
2022/02/11 11:31:57;;;;;;;6.72;1.95;;;7.00;99.90;;;;;;5051014;28;20228;-51
2022/02/11 11:34:31;;;;;;;2.55;1.80;;;7.00;99.90;;;;;;5039322;28;20260;-52
2022/02/11 11:37:09;;;;;;;4.07;2.05;;;7.00;99.90;;;;;;5048665;28;20318;-53
2022/02/11 11:39:40;;;;;;;6.25;1.80;;;7.00;99.90;;;;;;5050712;28;20218;-52
2022/02/11 11:42:14;;;;;;;3.30;1.90;;;7.00;99.90;;;;;;5048382;28;20641;-52
2022/02/11 11:44:52;;;;;;;4.40;2.50;;;6.90;99.90;;;;;;5041782;28;20185;-52
2022/02/11 11:47:29;;;;;;;3.42;2.22;;;7.00;99.90;;;;;;5041807;28;20691;-52
2022/02/11 11:50:03;;;;;;;4.50;1.90;;;7.00;99.90;;;;;;5050545;28;20252;-52
2022/02/11 11:52:46;;;;;;;2.97;1.52;;;6.90;99.90;;;;;;5039612;28;20772;-52
2022/02/11 11:55:24;;;;;;;4.65;2.28;;;6.90;99.90;;;;;;5050784;28;20406;-52
2022/02/11 11:57:59;;;;;;;4.78;2.00;;;6.90;99.90;;;;;;5029346;28;20221;-52
2022/02/11 12:00:36;;;;;;;4.45;1.55;;;6.90;99.90;;;;;;5034128;28;20264;-51
2022/02/11 12:03:09;;;;;;;3.63;1.75;;;6.90;99.90;;;;;;5067652;28;20574;-53
2022/02/11 12:05:45;;;;;;;4.25;2.00;;;6.90;99.90;;;;;;5056892;28;20196;-52
2022/02/11 12:08:17;;;;;;;2.13;1.80;;;6.90;99.90;;;;;;5051870;28;20265;-53
2022/02/11 12:10:50;;;;;;;2.55;1.70;;;6.90;99.90;;;;;;5050668;28;20606;-51
2022/02/11 12:13:20;;;;;;;5.13;1.95;;;6.90;99.90;;;;;;5050268;28;20218;-52
2022/02/11 12:15:52;;;;;;;3.38;2.13;;;6.90;99.90;;;;;;5051269;28;20271;-52
2022/02/11 12:18:24;;;;;;;1.83;1.20;;;6.90;99.90;;;;;;5048122;28;20583;-51
2022/02/11 12:20:55;;;;;;;4.82;1.85;;;6.90;99.90;;;;;;5051001;28;20616;-53
2022/02/11 12:28:58;;;;;;;3.50;1.70;;;6.90;99.90;;;;;;5030459;28;20199;-52
2022/02/11 12:31:29;;;;;;;2.53;1.77;;;6.90;99.90;;;;;;5028863;28;20283;-52
2022/02/11 12:34:13;;;;;;;3.92;1.80;;;6.90;99.90;;;;;;5030057;28;20201;-51
2022/02/11 12:36:43;;;;;;;7.82;2.50;;;6.90;99.90;;;;;;5030384;28;20694;-51
2022/02/11 12:39:18;;;;;;;3.92;1.75;;;6.90;99.90;;;;;;5030709;28;20638;-52
2022/02/11 12:41:48;;;;;;;3.17;1.92;;;6.90;99.90;;;;;;5039533;28;20218;-51
2022/02/11 12:44:26;;;;;;;6.18;2.00;;;6.90;99.90;;;;;;5045129;28;20216;-51
2022/02/11 12:47:00;;;;;;;3.20;1.52;;;6.90;99.90;;;;;;5050015;28;20221;-52
2022/02/11 12:49:30;;;;;;;3.42;1.55;;;6.90;99.90;;;;;;5049125;28;20259;-52
2022/02/11 12:51:59;;;;;;;4.47;1.92;;;6.90;99.90;;;;;;5049048;28;20228;-52
2022/02/11 12:54:30;;;;;;;4.70;1.48;;;6.90;99.90;;;;;;5049342;28;20197;-52
2022/02/11 12:57:03;;;;;;;2.50;1.95;;;6.90;99.90;;;;;;5047878;28;20553;-51
2022/02/11 12:59:34;;;;;;;3.53;2.05;;;6.90;99.90;;;;;;5035561;28;20250;-52
2022/02/11 13:02:06;;;;;;;3.58;1.50;;;6.90;99.90;;;;;;5055366;28;20221;-52
2022/02/11 13:04:35;;;;;;;3.65;1.90;;;6.90;99.90;;;;;;5056796;28;20203;-53
2022/02/11 13:07:03;;;;;;;3.72;1.95;;;6.90;99.90;;;;;;5082130;28;20264;-51
2022/02/11 13:09:33;;;;;;;2.80;1.85;;;6.90;99.90;;;;;;5090518;28;20268;-51
2022/02/11 13:12:10;;;;;;;4.22;1.73;;;6.90;99.90;;;;;;5087763;28;20224;-52
2022/02/11 13:14:43;;;;;;;3.20;1.25;;;6.90;99.90;;;;;;5082166;28;20196;-51
2022/02/11 13:17:16;;;;;;;3.22;1.70;;;6.90;99.90;;;;;;5088683;28;20747;-53
2022/02/11 13:19:50;;;;;;;3.85;1.65;;;7.00;99.90;;;;;;5082240;28;20212;-52
2022/02/11 13:22:19;;;;;;;5.43;1.65;;;6.90;99.90;;;;;;5088347;28;20215;-52
2022/02/11 13:24:50;;;;;;;2.92;1.95;;;6.90;99.90;;;;;;5089154;28;20296;-51
2022/02/11 13:27:19;;;;;;;6.43;2.10;;;6.90;99.90;;;;;;5088704;28;20219;-51
2022/02/11 13:30:01;;;;;;;5.93;2.05;;;7.00;99.90;;;;;;5072219;28;20211;-52
2022/02/11 13:32:33;;;;;;;7.13;1.90;;;7.00;99.90;;;;;;5076694;28;20590;-52
2022/02/11 13:35:05;;;;;;;4.05;1.95;;;7.00;99.90;;;;;;5080346;28;20189;-51
2022/02/11 13:37:39;;;;;;;2.28;1.83;;;7.00;99.90;;;;;;5086859;28;20302;-53
2022/02/11 13:40:21;;;;;;;3.05;1.63;;;7.00;99.90;;;;;;5090076;28;20216;-52
2022/02/11 13:43:13;;;;;;;3.22;1.30;;;7.00;99.90;;;;;;5087808;28;20305;-51
2022/02/11 13:45:56;;;;;;;6.28;2.28;;;7.00;99.90;;;;;;5081256;28;20216;-52
2022/02/11 13:48:31;;;;;;;5.80;2.28;;;7.00;99.90;;;;;;5085070;28;20228;-52
2022/02/11 13:51:13;;;;;;;4.38;1.73;;;7.00;99.90;;;;;;5082440;28;20203;-51
2022/02/11 13:53:44;;;;;;;4.72;1.65;;;7.00;99.90;;;;;;5089080;28;20193;-53
2022/02/11 13:56:17;;;;;;;3.58;1.60;;;7.00;99.90;;;;;;5086048;28;20570;-52
2022/02/11 13:59:05;;;;;;;6.20;1.70;;;7.00;99.90;;;;;;5084925;28;20704;-53
2022/02/11 14:01:38;;;;;;;2.92;1.80;;;7.00;99.90;;;;;;5088248;28;20229;-53
2022/02/11 14:04:16;;;;;;;2.20;1.83;;;7.00;99.90;;;;;;5078831;28;20405;-53
2022/02/11 14:06:49;;;;;;;6.60;2.17;;;6.90;99.90;;;;;;5085974;28;20207;-52
2022/02/11 14:09:35;;;;;;;4.43;1.67;;;6.90;99.90;;;;;;5088832;28;20662;-52
2022/02/11 14:12:05;;;;;;;4.72;2.00;;;6.90;99.90;;;;;;5088799;28;20235;-52
2022/02/11 14:14:36;;;;;;;2.67;1.85;;;7.00;99.90;;;;;;5084275;28;20278;-52
2022/02/11 14:17:05;;;;;;;2.80;1.60;;;6.90;99.90;;;;;;5087267;28;20212;-53
2022/02/11 14:19:38;;;;;;;5.97;1.98;;;6.90;99.90;;;;;;5071793;28;20216;-51
2022/02/11 14:22:08;;;;;;;3.65;1.50;;;6.90;99.90;;;;;;5087783;28;20275;-52
2022/02/11 14:24:36;;;;;;;2.60;1.40;;;7.00;99.90;;;;;;5086919;28;20526;-52
2022/02/11 14:27:06;;;;;;;6.45;1.73;;;6.90;99.90;;;;;;5080484;28;20224;-52
2022/02/11 14:29:35;;;;;;;2.85;1.38;;;6.90;99.90;;;;;;5066286;28;20720;-52
2022/02/11 14:32:05;;;;;;;5.13;1.85;;;6.90;99.90;;;;;;5068036;28;20223;-51
2022/02/11 14:34:35;;;;;;;3.05;2.00;;;6.90;99.90;;;;;;5079577;28;20196;-51
2022/02/11 14:37:04;;;;;;;3.25;1.67;;;6.90;99.90;;;;;;5089303;28;20750;-53
2022/02/11 14:39:33;;;;;;;3.70;1.65;;;6.90;99.90;;;;;;5088263;28;20699;-51
2022/02/11 14:42:05;;;;;;;4.93;1.60;;;7.00;99.90;;;;;;5069014;28;20251;-52
2022/02/11 14:44:36;;;;;;;3.65;1.50;;;6.90;99.90;;;;;;5088194;28;20573;-51
2022/02/11 14:47:08;;;;;;;7.57;1.50;;;6.90;99.90;;;;;;5087752;28;20655;-52
2022/02/11 14:49:39;;;;;;;3.10;1.80;;;6.90;99.90;;;;;;5068827;28;20211;-52
2022/02/11 14:52:09;;;;;;;3.95;1.15;;;6.90;99.90;;;;;;5085818;28;20593;-52
2022/02/11 14:54:37;;;;;;;4.97;1.80;;;6.90;99.90;;;;;;5091228;28;20189;-52
2022/02/11 14:57:08;;;;;;;4.20;1.45;;;6.90;99.90;;;;;;5084124;28;20468;-52
2022/02/11 14:59:37;;;;;;;3.05;1.35;;;6.90;99.90;;;;;;5092539;28;20223;-53
2022/02/11 15:02:07;;;;;;;3.70;1.50;;;6.90;99.90;;;;;;5091244;28;20217;-52
2022/02/11 15:04:38;;;;;;;2.50;1.25;;;7.00;99.90;;;;;;5087670;28;20539;-51
2022/02/11 15:07:09;;;;;;;2.95;1.38;;;6.90;99.90;;;;;;5081628;28;20228;-52
2022/02/11 15:09:37;;;;;;;4.10;1.60;;;6.90;99.90;;;;;;5091369;28;20205;-52
2022/02/11 15:12:09;;;;;;;2.42;1.45;;;6.90;99.90;;;;;;5083413;28;20221;-53
2022/02/11 15:14:40;;;;;;;2.75;1.30;;;6.90;99.90;;;;;;5092163;28;20187;-51
2022/02/11 15:17:11;;;;;;;1.65;1.42;;;6.90;99.90;;;;;;5091646;28;20214;-51
2022/02/11 15:19:45;;;;;;;2.45;1.35;;;6.90;99.90;;;;;;5082047;28;20249;-51
2022/02/11 15:22:16;;;;;;;1.80;1.30;;;6.90;99.90;;;;;;5091085;28;20260;-53
2022/02/11 15:24:48;;;;;;;2.60;1.40;;;6.90;99.90;;;;;;5088815;28;20186;-51
2022/02/11 15:27:17;;;;;;;4.72;2.10;;;6.90;99.90;;;;;;5088565;28;20345;-51
2022/02/11 15:29:46;;;;;;;2.40;1.30;;;6.90;99.90;;;;;;5091071;28;20300;-52
2022/02/11 15:32:15;;;;;;;1.75;1.40;;;6.90;99.90;;;;;;5090414;28;20221;-52
2022/02/11 15:34:45;;;;;;;3.72;1.55;;;6.90;99.90;;;;;;5080278;28;20607;-52
2022/02/11 15:37:16;;;;;;;4.72;1.50;;;6.90;99.90;;;;;;5090631;28;20217;-52
2022/02/11 15:39:44;;;;;;;2.80;1.17;;;6.90;99.90;;;;;;5091128;28;20252;-52
2022/02/11 15:42:12;;;;;;;3.03;1.90;;;6.90;99.90;;;;;;5078805;28;20637;-51
2022/02/11 15:44:40;;;;;;;2.58;1.75;;;6.90;99.90;;;;;;5084154;28;20181;-52
2022/02/11 15:47:09;;;;;;;2.80;1.60;;;6.90;99.90;;;;;;5090220;28;20718;-50
2022/02/11 15:49:38;;;;;;;4.55;2.20;;;6.90;99.90;;;;;;5081955;28;20726;-51
2022/02/11 15:52:09;;;;;;;5.80;2.40;;;6.90;99.90;;;;;;5085427;28;20281;-51
2022/02/11 15:54:38;;;;;;;4.35;1.95;;;6.80;99.90;;;;;;5090772;28;20571;-51
2022/02/11 15:57:07;;;;;;;11.75;2.33;;;6.80;99.90;;;;;;5084073;28;20224;-51
2022/02/11 15:59:36;;;;;;;7.32;2.47;;;6.80;99.90;;;;;;5081856;28;20749;-52
2022/02/11 16:02:25;;;;;;;6.63;1.90;;;6.80;99.90;;;;;;5078014;28;20639;-51
2022/02/11 16:05:03;;;;;;;3.20;2.03;;;6.90;99.90;;;;;;5075498;28;20722;-51
2022/02/11 16:07:32;;;;;;;2.97;1.33;;;6.90;99.90;;;;;;5089772;28;20734;-52
2022/02/11 16:10:04;;;;;;;5.70;1.50;;;6.90;99.90;;;;;;5090218;28;20211;-52
2022/02/11 16:12:34;;;;;;;3.05;1.50;;;6.90;99.90;;;;;;5090239;28;20248;-52
2022/02/11 16:15:03;;;;;;;4.63;1.52;;;6.90;99.90;;;;;;5070370;28;20221;-50
2022/02/11 16:17:59;;;;;;;7.00;1.63;;;6.90;99.90;;;;;;5078192;28;20634;-51
2022/02/11 16:20:35;;;;;;;7.80;1.48;;;6.90;99.90;;;;;;5076096;28;20272;-51
2022/02/11 16:23:07;;;;;;;1.67;1.05;;;6.90;99.90;;;;;;5077795;28;20567;-51
2022/02/11 16:25:37;;;;;;;3.33;1.55;;;6.90;99.90;;;;;;5090081;28;20208;-51
2022/02/11 16:28:07;;;;;;;3.20;1.40;;;6.90;99.90;;;;;;5073403;28;20216;-52
2022/02/11 16:30:38;;;;;;;2.75;1.33;;;6.90;99.90;;;;;;5090634;28;20289;-52
2022/02/11 16:33:07;;;;;;;4.28;1.20;;;6.90;99.90;;;;;;5089135;28;20238;-51
2022/02/11 16:35:39;;;;;;;7.72;1.75;;;6.90;99.90;;;;;;5059906;28;20546;-50
2022/02/11 16:41:44;;;;;;;1.95;1.30;;;6.90;99.90;;;;;;5106298;27;20600;-52
2022/02/11 16:44:13;;;;;;;3.20;1.58;;;6.90;99.90;;;;;;5065316;28;20194;-52
2022/02/11 16:46:47;;;;;;;3.20;0.90;;;6.90;99.90;;;;;;5063690;28;20223;-53
2022/02/11 16:49:28;;;;;;;3.15;1.05;;;6.90;99.90;;;;;;5061467;28;20619;-53
2022/02/11 16:51:58;;;;;;;4.30;1.40;;;6.90;99.90;;;;;;5063929;28;20217;-52
2022/02/11 16:54:26;;;;;;;3.83;1.55;;;6.90;99.90;;;;;;5065418;28;20243;-52
2022/02/11 16:56:55;;;;;;;4.30;1.25;;;6.90;99.90;;;;;;5073022;28;20745;-53
2022/02/11 16:59:23;;;;;;;3.20;2.17;;;6.90;99.90;;;;;;5085341;28;20229;-52
2022/02/11 17:01:52;;;;;;;2.45;1.10;;;6.90;99.90;;;;;;5084101;28;20239;-52
2022/02/11 17:04:20;;;;;;;3.75;1.65;;;6.90;99.90;;;;;;5075049;28;20207;-52
2022/02/11 17:06:48;;;;;;;4.68;1.65;;;6.90;99.90;;;;;;5079241;27;20248;-53
2022/02/11 17:09:16;;;;;;;5.68;1.55;;;6.90;99.90;;;;;;5065808;28;20940;-52
2022/02/11 17:11:49;;;;;;;3.95;1.33;;;6.90;99.90;;;;;;5062865;28;20218;-52
2022/02/11 17:14:19;;;;;;;2.65;1.20;;;6.90;99.90;;;;;;5064063;28;20213;-51
2022/02/11 17:16:48;;;;;;;2.10;1.35;;;6.90;99.90;;;;;;5071551;28;20703;-52
2022/02/11 17:19:16;;;;;;;3.95;1.50;;;6.90;99.90;;;;;;5075991;28;20279;-51
2022/02/11 17:21:44;;;;;;;3.50;1.20;;;6.90;99.90;;;;;;5086801;28;20237;-51